sensor_id;sensor_type;location;lat;lon;timestamp;pressure;altitude;pressure_sealevel;temperature;humidity
58467;BME280;44255;49.244;7.726;2022-08-01T03:31:27;98447.44;;;14.74;66.19
58467;BME280;44255;49.244;7.726;2022-08-01T03:33:53;98444.13;;;14.58;66.82
58467;BME280;44255;49.244;7.726;2022-08-01T03:36:21;98449.06;;;14.64;66.77
58467;BME280;44255;49.244;7.726;2022-08-01T03:38:50;98448.47;;;14.60;66.85
58467;BME280;44255;49.244;7.726;2022-08-01T03:41:19;98455.38;;;14.89;65.64
58467;BME280;44255;49.244;7.726;2022-08-01T03:43:58;98457.50;;;14.59;66.57
58467;BME280;44255;49.244;7.726;2022-08-01T03:46:42;98450.69;;;14.67;66.01
58467;BME280;44255;49.244;7.726;2022-08-01T03:49:17;98453.16;;;14.70;66.51
58467;BME280;44255;49.244;7.726;2022-08-01T03:51:45;98458.50;;;14.45;67.50
58467;BME280;44255;49.244;7.726;2022-08-01T03:54:14;98454.97;;;14.45;67.81
58467;BME280;44255;49.244;7.726;2022-08-01T03:56:41;98450.00;;;14.39;67.65
58467;BME280;44255;49.244;7.726;2022-08-01T03:59:08;98453.00;;;14.34;68.14
58467;BME280;44255;49.244;7.726;2022-08-01T04:01:34;98452.38;;;14.30;68.46
58467;BME280;44255;49.244;7.726;2022-08-01T04:04:01;98458.53;;;14.32;68.46
58467;BME280;44255;49.244;7.726;2022-08-01T04:06:26;98454.31;;;14.41;67.91
58467;BME280;44255;49.244;7.726;2022-08-01T04:08:52;98455.47;;;14.50;67.84
58467;BME280;44255;49.244;7.726;2022-08-01T04:11:24;98457.75;;;14.43;67.69
58467;BME280;44255;49.244;7.726;2022-08-01T04:13:54;98452.75;;;14.63;67.10
58467;BME280;44255;49.244;7.726;2022-08-01T04:16:20;98457.97;;;14.53;67.54
58467;BME280;44255;49.244;7.726;2022-08-01T04:18:46;98462.69;;;14.50;67.65
58467;BME280;44255;49.244;7.726;2022-08-01T04:21:12;98461.31;;;14.57;67.12
58467;BME280;44255;49.244;7.726;2022-08-01T04:23:38;98472.72;;;14.73;66.78
58467;BME280;44255;49.244;7.726;2022-08-01T04:26:05;98469.13;;;14.86;66.46
58467;BME280;44255;49.244;7.726;2022-08-01T04:28:34;98467.25;;;14.86;66.83
58467;BME280;44255;49.244;7.726;2022-08-01T04:31:01;98464.63;;;14.73;67.67
58467;BME280;44255;49.244;7.726;2022-08-01T04:33:27;98467.59;;;14.82;67.54
58467;BME280;44255;49.244;7.726;2022-08-01T04:35:54;98470.19;;;14.83;67.53
58467;BME280;44255;49.244;7.726;2022-08-01T04:38:22;98472.06;;;15.07;66.44
58467;BME280;44255;49.244;7.726;2022-08-01T04:40:52;98470.59;;;15.03;66.48
58467;BME280;44255;49.244;7.726;2022-08-01T04:43:19;98476.16;;;15.13;66.67
58467;BME280;44255;49.244;7.726;2022-08-01T04:45:45;98478.22;;;15.09;66.48
58467;BME280;44255;49.244;7.726;2022-08-01T04:48:13;98471.00;;;15.10;66.25
58467;BME280;44255;49.244;7.726;2022-08-01T04:50:40;98474.28;;;15.26;66.54
58467;BME280;44255;49.244;7.726;2022-08-01T04:53:14;98471.84;;;15.35;65.88
58467;BME280;44255;49.244;7.726;2022-08-01T04:55:42;98473.94;;;15.31;65.70
58467;BME280;44255;49.244;7.726;2022-08-01T04:58:09;98474.38;;;15.49;65.57
58467;BME280;44255;49.244;7.726;2022-08-01T05:00:35;98478.72;;;15.63;65.49
58467;BME280;44255;49.244;7.726;2022-08-01T05:03:00;98476.25;;;15.60;65.59
58467;BME280;44255;49.244;7.726;2022-08-01T05:05:26;98480.47;;;15.64;65.20
58467;BME280;44255;49.244;7.726;2022-08-01T05:07:51;98476.13;;;15.61;65.15
58467;BME280;44255;49.244;7.726;2022-08-01T05:10:16;98478.41;;;15.79;64.65
58467;BME280;44255;49.244;7.726;2022-08-01T05:12:42;98471.34;;;15.89;64.44
58467;BME280;44255;49.244;7.726;2022-08-01T05:15:07;98471.97;;;16.05;64.40
58467;BME280;44255;49.244;7.726;2022-08-01T05:17:33;98473.22;;;16.23;64.10
58467;BME280;44255;49.244;7.726;2022-08-01T05:19:58;98476.56;;;16.27;64.16
58467;BME280;44255;49.244;7.726;2022-08-01T05:22:23;98471.91;;;16.40;63.84
58467;BME280;44255;49.244;7.726;2022-08-01T05:24:50;98466.94;;;16.57;63.88
58467;BME280;44255;49.244;7.726;2022-08-01T05:27:16;98476.91;;;16.91;62.37
58467;BME280;44255;49.244;7.726;2022-08-01T05:29:41;98472.69;;;17.09;61.99
58467;BME280;44255;49.244;7.726;2022-08-01T05:32:06;98471.16;;;17.28;61.43
58467;BME280;44255;49.244;7.726;2022-08-01T05:34:31;98465.81;;;17.38;61.26
58467;BME280;44255;49.244;7.726;2022-08-01T05:36:57;98471.72;;;17.43;61.06
58467;BME280;44255;49.244;7.726;2022-08-01T05:39:22;98478.09;;;17.53;60.96
58467;BME280;44255;49.244;7.726;2022-08-01T05:41:47;98479.72;;;17.56;61.13
58467;BME280;44255;49.244;7.726;2022-08-01T05:44:13;98474.69;;;17.72;60.53
58467;BME280;44255;49.244;7.726;2022-08-01T05:46:38;98472.78;;;17.84;60.20
58467;BME280;44255;49.244;7.726;2022-08-01T05:49:05;98476.69;;;17.70;60.83
58467;BME280;44255;49.244;7.726;2022-08-01T05:51:30;98485.88;;;17.47;61.16
58467;BME280;44255;49.244;7.726;2022-08-01T05:53:56;98479.44;;;17.15;62.17
58467;BME280;44255;49.244;7.726;2022-08-01T05:56:21;98483.31;;;17.45;61.20
58467;BME280;44255;49.244;7.726;2022-08-01T05:58:48;98484.94;;;17.36;61.73
58467;BME280;44255;49.244;7.726;2022-08-01T06:01:15;98485.78;;;17.37;61.99
58467;BME280;44255;49.244;7.726;2022-08-01T06:03:40;98478.13;;;17.42;62.11
58467;BME280;44255;49.244;7.726;2022-08-01T06:06:06;98481.28;;;17.58;61.63
58467;BME280;44255;49.244;7.726;2022-08-01T06:08:31;98491.66;;;17.42;62.69
58467;BME280;44255;49.244;7.726;2022-08-01T06:10:57;98487.53;;;17.70;62.16
58467;BME280;44255;49.244;7.726;2022-08-01T06:13:22;98480.25;;;17.92;61.92
58467;BME280;44255;49.244;7.726;2022-08-01T06:15:48;98479.91;;;18.28;60.59
58467;BME280;44255;49.244;7.726;2022-08-01T06:18:13;98474.34;;;18.08;61.69
58467;BME280;44255;49.244;7.726;2022-08-01T06:20:39;98477.22;;;18.07;61.75
58467;BME280;44255;49.244;7.726;2022-08-01T06:23:04;98483.63;;;18.06;61.26
58467;BME280;44255;49.244;7.726;2022-08-01T06:25:30;98478.13;;;18.38;60.36
58467;BME280;44255;49.244;7.726;2022-08-01T06:27:55;98480.44;;;18.84;59.27
58467;BME280;44255;49.244;7.726;2022-08-01T06:30:21;98482.44;;;18.82;58.63
58467;BME280;44255;49.244;7.726;2022-08-01T06:32:46;98489.75;;;18.91;58.61
58467;BME280;44255;49.244;7.726;2022-08-01T06:35:12;98488.91;;;18.91;58.04
58467;BME280;44255;49.244;7.726;2022-08-01T06:37:37;98486.88;;;18.83;58.08
58467;BME280;44255;49.244;7.726;2022-08-01T06:40:04;98491.41;;;18.41;59.67
58467;BME280;44255;49.244;7.726;2022-08-01T06:42:30;98490.09;;;18.67;58.58
58467;BME280;44255;49.244;7.726;2022-08-01T06:45:05;98486.03;;;18.51;59.19
58467;BME280;44255;49.244;7.726;2022-08-01T06:47:30;98479.31;;;18.96;58.04
58467;BME280;44255;49.244;7.726;2022-08-01T06:49:55;98484.00;;;18.84;58.19
58467;BME280;44255;49.244;7.726;2022-08-01T06:52:21;98489.13;;;19.28;56.85
58467;BME280;44255;49.244;7.726;2022-08-01T06:54:46;98478.16;;;18.89;57.68
58467;BME280;44255;49.244;7.726;2022-08-01T06:57:11;98485.53;;;18.67;58.56
58467;BME280;44255;49.244;7.726;2022-08-01T06:59:37;98491.72;;;19.20;57.28
58467;BME280;44255;49.244;7.726;2022-08-01T07:02:02;98493.91;;;18.95;57.45
58467;BME280;44255;49.244;7.726;2022-08-01T07:04:27;98485.72;;;19.26;56.90
58467;BME280;44255;49.244;7.726;2022-08-01T07:06:53;98484.28;;;19.42;56.37
58467;BME280;44255;49.244;7.726;2022-08-01T07:09:18;98485.41;;;19.29;56.33
58467;BME280;44255;49.244;7.726;2022-08-01T07:11:43;98473.13;;;19.75;55.62
58467;BME280;44255;49.244;7.726;2022-08-01T07:14:08;98479.41;;;19.16;56.33
58467;BME280;44255;49.244;7.726;2022-08-01T07:16:34;98469.84;;;19.91;54.34
58467;BME280;44255;49.244;7.726;2022-08-01T07:18:59;98465.66;;;20.06;54.51
58467;BME280;44255;49.244;7.726;2022-08-01T07:21:24;98475.13;;;20.12;53.89
58467;BME280;44255;49.244;7.726;2022-08-01T07:23:49;98470.44;;;20.32;53.91
58467;BME280;44255;49.244;7.726;2022-08-01T07:26:15;98459.84;;;20.29;53.04
58467;BME280;44255;49.244;7.726;2022-08-01T07:28:40;98466.22;;;20.20;53.51
58467;BME280;44255;49.244;7.726;2022-08-01T07:31:05;98463.53;;;20.00;53.79
58467;BME280;44255;49.244;7.726;2022-08-01T07:33:31;98463.94;;;20.05;53.70
58467;BME280;44255;49.244;7.726;2022-08-01T07:35:56;98463.97;;;20.53;52.48
58467;BME280;44255;49.244;7.726;2022-08-01T07:38:21;98468.13;;;19.70;53.90
58467;BME280;44255;49.244;7.726;2022-08-01T07:40:47;98461.28;;;19.76;54.50
58467;BME280;44255;49.244;7.726;2022-08-01T07:43:12;98462.22;;;20.14;53.21
58467;BME280;44255;49.244;7.726;2022-08-01T07:45:38;98451.28;;;20.24;52.76
58467;BME280;44255;49.244;7.726;2022-08-01T07:48:06;98466.81;;;20.04;53.16
58467;BME280;44255;49.244;7.726;2022-08-01T07:50:33;98457.84;;;20.31;52.32
58467;BME280;44255;49.244;7.726;2022-08-01T07:52:59;98460.38;;;20.52;51.78
58467;BME280;44255;49.244;7.726;2022-08-01T07:55:24;98451.72;;;20.67;51.71
58467;BME280;44255;49.244;7.726;2022-08-01T07:57:49;98456.28;;;20.66;51.47
58467;BME280;44255;49.244;7.726;2022-08-01T08:00:15;98458.97;;;21.04;51.17
58467;BME280;44255;49.244;7.726;2022-08-01T08:02:41;98466.03;;;20.69;50.67
58467;BME280;44255;49.244;7.726;2022-08-01T08:05:06;98446.13;;;21.69;48.54
58467;BME280;44255;49.244;7.726;2022-08-01T08:07:32;98455.28;;;21.41;48.94
58467;BME280;44255;49.244;7.726;2022-08-01T08:09:58;98462.59;;;21.23;49.55
58467;BME280;44255;49.244;7.726;2022-08-01T08:12:23;98460.09;;;20.83;50.03
58467;BME280;44255;49.244;7.726;2022-08-01T08:14:48;98472.69;;;20.56;50.42
58467;BME280;44255;49.244;7.726;2022-08-01T08:17:13;98472.16;;;20.43;50.96
58467;BME280;44255;49.244;7.726;2022-08-01T08:19:39;98471.53;;;20.59;50.79
58467;BME280;44255;49.244;7.726;2022-08-01T08:22:08;98473.00;;;20.53;51.24
58467;BME280;44255;49.244;7.726;2022-08-01T08:24:34;98470.84;;;20.57;50.47
58467;BME280;44255;49.244;7.726;2022-08-01T08:27:00;98462.63;;;20.67;50.43
58467;BME280;44255;49.244;7.726;2022-08-01T08:29:27;98445.66;;;21.74;47.98
58467;BME280;44255;49.244;7.726;2022-08-01T08:31:55;98446.09;;;21.24;49.10
58467;BME280;44255;49.244;7.726;2022-08-01T08:34:20;98460.03;;;21.21;48.48
58467;BME280;44255;49.244;7.726;2022-08-01T08:36:45;98458.19;;;20.94;49.06
58467;BME280;44255;49.244;7.726;2022-08-01T08:39:11;98458.31;;;21.57;47.77
58467;BME280;44255;49.244;7.726;2022-08-01T08:41:36;98449.72;;;21.88;46.71
58467;BME280;44255;49.244;7.726;2022-08-01T08:44:07;98464.72;;;21.01;48.48
58467;BME280;44255;49.244;7.726;2022-08-01T08:46:33;98458.41;;;21.29;48.32
58467;BME280;44255;49.244;7.726;2022-08-01T08:49:05;98457.88;;;20.97;48.61
58467;BME280;44255;49.244;7.726;2022-08-01T08:51:33;98457.53;;;21.64;47.46
58467;BME280;44255;49.244;7.726;2022-08-01T08:54:00;98458.97;;;20.76;48.98
58467;BME280;44255;49.244;7.726;2022-08-01T08:56:28;98468.25;;;20.83;49.41
58467;BME280;44255;49.244;7.726;2022-08-01T08:58:58;98460.03;;;21.21;48.98
58467;BME280;44255;49.244;7.726;2022-08-01T09:01:24;98453.56;;;21.40;48.24
58467;BME280;44255;49.244;7.726;2022-08-01T09:03:49;98457.22;;;21.67;47.87
58467;BME280;44255;49.244;7.726;2022-08-01T09:06:15;98459.94;;;21.49;48.30
58467;BME280;44255;49.244;7.726;2022-08-01T09:08:40;98454.53;;;21.76;47.67
58467;BME280;44255;49.244;7.726;2022-08-01T09:11:06;98463.06;;;21.73;48.35
58467;BME280;44255;49.244;7.726;2022-08-01T09:13:31;98458.56;;;22.61;46.42
58467;BME280;44255;49.244;7.726;2022-08-01T09:15:56;98454.00;;;21.90;47.46
58467;BME280;44255;49.244;7.726;2022-08-01T09:18:38;98462.69;;;22.12;47.12
58467;BME280;44255;49.244;7.726;2022-08-01T09:21:17;98461.72;;;22.48;46.63
58467;BME280;44255;49.244;7.726;2022-08-01T09:23:44;98461.25;;;22.95;45.60
58467;BME280;44255;49.244;7.726;2022-08-01T09:26:14;98464.13;;;22.51;46.56
58467;BME280;44255;49.244;7.726;2022-08-01T09:28:41;98464.69;;;22.28;46.79
58467;BME280;44255;49.244;7.726;2022-08-01T09:31:12;98458.28;;;22.80;46.12
58467;BME280;44255;49.244;7.726;2022-08-01T09:33:51;98471.41;;;21.71;47.26
58467;BME280;44255;49.244;7.726;2022-08-01T09:36:17;98473.88;;;21.82;47.30
58467;BME280;44255;49.244;7.726;2022-08-01T09:38:43;98472.81;;;21.75;47.41
58467;BME280;44255;49.244;7.726;2022-08-01T09:41:08;98464.00;;;22.26;46.71
58467;BME280;44255;49.244;7.726;2022-08-01T09:43:34;98462.31;;;22.33;46.30
58467;BME280;44255;49.244;7.726;2022-08-01T09:46:04;98464.38;;;21.87;46.65
58467;BME280;44255;49.244;7.726;2022-08-01T09:48:31;98453.78;;;22.36;45.65
58467;BME280;44255;49.244;7.726;2022-08-01T09:50:59;98470.63;;;21.61;46.99
58467;BME280;44255;49.244;7.726;2022-08-01T09:53:24;98461.63;;;22.31;45.89
58467;BME280;44255;49.244;7.726;2022-08-01T09:55:50;98463.00;;;22.35;46.17
58467;BME280;44255;49.244;7.726;2022-08-01T09:58:17;98461.34;;;22.43;45.27
58467;BME280;44255;49.244;7.726;2022-08-01T10:00:58;98467.41;;;22.54;45.52
58467;BME280;44255;49.244;7.726;2022-08-01T10:03:26;98458.97;;;22.74;45.21
58467;BME280;44255;49.244;7.726;2022-08-01T10:05:52;98468.06;;;22.83;44.16
58467;BME280;44255;49.244;7.726;2022-08-01T10:08:19;98471.16;;;22.01;46.20
58467;BME280;44255;49.244;7.726;2022-08-01T10:11:08;98471.63;;;21.78;46.77
58467;BME280;44255;49.244;7.726;2022-08-01T10:13:34;98468.25;;;22.02;46.12
58467;BME280;44255;49.244;7.726;2022-08-01T10:16:01;98471.16;;;21.82;47.02
58467;BME280;44255;49.244;7.726;2022-08-01T10:18:28;98477.06;;;21.78;46.81
58467;BME280;44255;49.244;7.726;2022-08-01T10:20:55;98471.16;;;22.27;45.85
58467;BME280;44255;49.244;7.726;2022-08-01T10:23:22;98477.16;;;21.68;46.66
58467;BME280;44255;49.244;7.726;2022-08-01T10:25:48;98483.19;;;21.72;45.81
58467;BME280;44255;49.244;7.726;2022-08-01T10:28:16;98471.19;;;21.64;43.98
58467;BME280;44255;49.244;7.726;2022-08-01T10:30:43;98464.84;;;21.64;44.78
58467;BME280;44255;49.244;7.726;2022-08-01T10:33:08;98472.50;;;22.23;43.80
58467;BME280;44255;49.244;7.726;2022-08-01T10:35:35;98471.56;;;21.88;44.42
58467;BME280;44255;49.244;7.726;2022-08-01T10:38:01;98478.41;;;21.74;44.68
58467;BME280;44255;49.244;7.726;2022-08-01T10:40:26;98467.03;;;21.60;45.35
58467;BME280;44255;49.244;7.726;2022-08-01T10:42:52;98474.94;;;21.63;44.61
58467;BME280;44255;49.244;7.726;2022-08-01T10:45:18;98474.84;;;21.37;45.49
58467;BME280;44255;49.244;7.726;2022-08-01T10:47:56;98468.69;;;21.89;45.25
58467;BME280;44255;49.244;7.726;2022-08-01T10:50:44;98468.59;;;21.81;45.33
58467;BME280;44255;49.244;7.726;2022-08-01T10:58:35;98462.66;;;21.86;45.48
58467;BME280;44255;49.244;7.726;2022-08-01T11:03:43;98467.31;;;22.11;45.60
58467;BME280;44255;49.244;7.726;2022-08-01T11:06:17;98464.94;;;21.90;45.84
58467;BME280;44255;49.244;7.726;2022-08-01T11:08:50;98455.28;;;22.04;45.03
58467;BME280;44255;49.244;7.726;2022-08-01T11:11:16;98461.31;;;22.08;45.40
58467;BME280;44255;49.244;7.726;2022-08-01T11:14:01;98454.84;;;22.70;44.49
58467;BME280;44255;49.244;7.726;2022-08-01T11:18:52;98455.72;;;22.44;44.45
58467;BME280;44255;49.244;7.726;2022-08-01T11:21:17;98455.47;;;22.29;45.22
58467;BME280;44255;49.244;7.726;2022-08-01T11:23:49;98449.72;;;22.67;44.37
58467;BME280;44255;49.244;7.726;2022-08-01T11:26:15;98454.13;;;22.07;44.56
58467;BME280;44255;49.244;7.726;2022-08-01T11:28:43;98459.56;;;21.44;45.83
58467;BME280;44255;49.244;7.726;2022-08-01T11:38:37;98445.78;;;22.69;44.41
58467;BME280;44255;49.244;7.726;2022-08-01T11:41:13;98441.59;;;22.83;44.09
58467;BME280;44255;49.244;7.726;2022-08-01T11:43:59;98437.81;;;23.44;42.96
58467;BME280;44255;49.244;7.726;2022-08-01T11:51:59;98434.69;;;23.39;42.12
58467;BME280;44255;49.244;7.726;2022-08-01T11:54:30;98444.81;;;22.79;43.88
58467;BME280;44255;49.244;7.726;2022-08-01T11:57:00;98439.13;;;22.72;43.87
58467;BME280;44255;49.244;7.726;2022-08-01T11:59:26;98436.94;;;22.76;43.60
58467;BME280;44255;49.244;7.726;2022-08-01T12:01:51;98442.22;;;24.28;40.76
58467;BME280;44255;49.244;7.726;2022-08-01T12:04:17;98441.06;;;23.73;41.76
58467;BME280;44255;49.244;7.726;2022-08-01T12:06:43;98434.00;;;23.20;42.81
58467;BME280;44255;49.244;7.726;2022-08-01T12:09:15;98438.84;;;23.60;42.35
58467;BME280;44255;49.244;7.726;2022-08-01T12:11:41;98432.56;;;23.00;43.98
58467;BME280;44255;49.244;7.726;2022-08-01T12:14:06;98439.53;;;23.62;42.18
58467;BME280;44255;49.244;7.726;2022-08-01T12:16:32;98428.59;;;23.95;42.01
58467;BME280;44255;49.244;7.726;2022-08-01T12:18:58;98436.72;;;23.20;42.77
58467;BME280;44255;49.244;7.726;2022-08-01T12:21:23;98435.34;;;24.24;40.80
58467;BME280;44255;49.244;7.726;2022-08-01T12:24:04;98428.41;;;26.63;36.39
58467;BME280;44255;49.244;7.726;2022-08-01T12:26:41;98415.91;;;27.99;33.82
58467;BME280;44255;49.244;7.726;2022-08-01T12:29:07;98430.66;;;25.29;38.39
58467;BME280;44255;49.244;7.726;2022-08-01T12:31:33;98429.44;;;23.87;41.49
58467;BME280;44255;49.244;7.726;2022-08-01T12:34:25;98426.16;;;23.92;41.63
58467;BME280;44255;49.244;7.726;2022-08-01T12:36:52;98428.56;;;25.08;39.83
58467;BME280;44255;49.244;7.726;2022-08-01T12:39:19;98431.69;;;25.28;39.27
58467;BME280;44255;49.244;7.726;2022-08-01T12:41:45;98425.94;;;25.15;39.81
58467;BME280;44255;49.244;7.726;2022-08-01T12:44:14;98425.09;;;25.37;39.17
58467;BME280;44255;49.244;7.726;2022-08-01T12:46:40;98426.63;;;25.40;39.19
58467;BME280;44255;49.244;7.726;2022-08-01T12:49:06;98432.59;;;24.32;40.64
58467;BME280;44255;49.244;7.726;2022-08-01T12:51:31;98432.25;;;24.27;41.02
58467;BME280;44255;49.244;7.726;2022-08-01T12:54:00;98430.28;;;23.88;41.50
58467;BME280;44255;49.244;7.726;2022-08-01T12:56:32;98439.69;;;23.35;42.30
58467;BME280;44255;49.244;7.726;2022-08-01T12:58:58;98440.81;;;22.38;44.24
58467;BME280;44255;49.244;7.726;2022-08-01T13:01:26;98435.13;;;23.09;43.10
58467;BME280;44255;49.244;7.726;2022-08-01T13:04:02;98436.47;;;24.94;39.50
58467;BME280;44255;49.244;7.726;2022-08-01T13:06:31;98424.63;;;25.34;39.08
58467;BME280;44255;49.244;7.726;2022-08-01T13:09:10;98430.00;;;24.47;40.07
58467;BME280;44255;49.244;7.726;2022-08-01T13:11:36;98428.19;;;24.15;40.78
58467;BME280;44255;49.244;7.726;2022-08-01T13:14:02;98428.31;;;24.46;40.80
58467;BME280;44255;49.244;7.726;2022-08-01T13:16:27;98418.31;;;23.89;41.32
58467;BME280;44255;49.244;7.726;2022-08-01T13:18:55;98430.81;;;22.90;43.34
58467;BME280;44255;49.244;7.726;2022-08-01T13:21:23;98419.66;;;23.68;41.65
58467;BME280;44255;49.244;7.726;2022-08-01T13:24:05;98427.19;;;23.41;42.35
58467;BME280;44255;49.244;7.726;2022-08-01T13:29:12;98429.22;;;23.39;42.53
58467;BME280;44255;49.244;7.726;2022-08-01T13:31:39;98424.50;;;22.98;42.96
58467;BME280;44255;49.244;7.726;2022-08-01T13:34:05;98418.47;;;24.04;41.07
58467;BME280;44255;49.244;7.726;2022-08-01T13:36:31;98423.81;;;25.72;38.02
58467;BME280;44255;49.244;7.726;2022-08-01T13:39:00;98415.75;;;27.35;34.89
58467;BME280;44255;49.244;7.726;2022-08-01T13:41:45;98417.50;;;25.71;37.74
58467;BME280;44255;49.244;7.726;2022-08-01T13:44:11;98423.00;;;24.36;39.71
58467;BME280;44255;49.244;7.726;2022-08-01T13:46:37;98434.03;;;24.03;41.28
58467;BME280;44255;49.244;7.726;2022-08-01T13:49:04;98422.75;;;25.03;39.08
58467;BME280;44255;49.244;7.726;2022-08-01T13:51:30;98417.56;;;24.28;40.53
58467;BME280;44255;49.244;7.726;2022-08-01T13:53:55;98413.16;;;24.10;40.65
58467;BME280;44255;49.244;7.726;2022-08-01T13:56:21;98416.94;;;23.27;41.87
58467;BME280;44255;49.244;7.726;2022-08-01T13:58:47;98417.16;;;22.99;42.84
58467;BME280;44255;49.244;7.726;2022-08-01T14:01:12;98410.75;;;23.41;41.92
58467;BME280;44255;49.244;7.726;2022-08-01T14:03:38;98419.00;;;23.99;41.14
58467;BME280;44255;49.244;7.726;2022-08-01T14:06:04;98418.13;;;23.99;40.57
58467;BME280;44255;49.244;7.726;2022-08-01T14:08:29;98414.06;;;24.51;39.85
58467;BME280;44255;49.244;7.726;2022-08-01T14:10:55;98416.50;;;24.46;40.33
58467;BME280;44255;49.244;7.726;2022-08-01T14:13:22;98415.66;;;24.37;40.21
58467;BME280;44255;49.244;7.726;2022-08-01T14:15:48;98416.66;;;24.36;40.10
58467;BME280;44255;49.244;7.726;2022-08-01T14:18:15;98412.91;;;24.77;39.65
58467;BME280;44255;49.244;7.726;2022-08-01T14:20:40;98404.53;;;25.80;38.16
58467;BME280;44255;49.244;7.726;2022-08-01T14:23:06;98406.56;;;25.40;37.75
58467;BME280;44255;49.244;7.726;2022-08-01T14:25:31;98405.81;;;25.92;36.76
58467;BME280;44255;49.244;7.726;2022-08-01T14:27:56;98405.16;;;26.05;36.81
58467;BME280;44255;49.244;7.726;2022-08-01T14:30:22;98418.03;;;25.43;37.64
58467;BME280;44255;49.244;7.726;2022-08-01T14:32:47;98409.16;;;26.18;36.87
58467;BME280;44255;49.244;7.726;2022-08-01T14:35:12;98403.06;;;25.92;37.51
58467;BME280;44255;49.244;7.726;2022-08-01T14:37:37;98415.56;;;23.89;40.33
58467;BME280;44255;49.244;7.726;2022-08-01T14:40:03;98410.84;;;24.31;39.64
58467;BME280;44255;49.244;7.726;2022-08-01T14:42:32;98402.88;;;24.04;40.34
58467;BME280;44255;49.244;7.726;2022-08-01T14:44:58;98407.59;;;24.27;40.11
58467;BME280;44255;49.244;7.726;2022-08-01T14:47:23;98406.00;;;23.60;41.02
58467;BME280;44255;49.244;7.726;2022-08-01T14:49:49;98414.88;;;23.70;40.89
58467;BME280;44255;49.244;7.726;2022-08-01T14:52:14;98406.09;;;23.00;41.83
58467;BME280;44255;49.244;7.726;2022-08-01T14:54:40;98404.09;;;23.27;40.96
58467;BME280;44255;49.244;7.726;2022-08-01T14:57:05;98408.38;;;23.54;41.03
58467;BME280;44255;49.244;7.726;2022-08-01T14:59:30;98410.75;;;23.16;41.70
58467;BME280;44255;49.244;7.726;2022-08-01T15:01:56;98408.88;;;23.25;41.44
58467;BME280;44255;49.244;7.726;2022-08-01T15:04:21;98402.19;;;23.19;41.46
58467;BME280;44255;49.244;7.726;2022-08-01T15:06:46;98411.31;;;23.53;40.93
58467;BME280;44255;49.244;7.726;2022-08-01T15:09:12;98415.19;;;23.17;41.32
58467;BME280;44255;49.244;7.726;2022-08-01T15:11:37;98403.56;;;23.57;40.91
58467;BME280;44255;49.244;7.726;2022-08-01T15:14:02;98409.75;;;23.34;40.82
58467;BME280;44255;49.244;7.726;2022-08-01T15:16:46;98389.22;;;23.63;40.59
58467;BME280;44255;49.244;7.726;2022-08-01T15:19:12;98394.84;;;23.61;40.51
58467;BME280;44255;49.244;7.726;2022-08-01T15:21:37;98392.06;;;23.11;40.94
58467;BME280;44255;49.244;7.726;2022-08-01T15:24:03;98400.94;;;23.14;41.21
58467;BME280;44255;49.244;7.726;2022-08-01T15:26:28;98405.16;;;22.83;41.76
58467;BME280;44255;49.244;7.726;2022-08-01T15:28:54;98409.88;;;22.30;42.55
58467;BME280;44255;49.244;7.726;2022-08-01T15:31:20;98402.28;;;22.85;41.45
58467;BME280;44255;49.244;7.726;2022-08-01T15:33:45;98403.06;;;22.68;42.27
58467;BME280;44255;49.244;7.726;2022-08-01T15:36:10;98413.72;;;22.88;42.14
58467;BME280;44255;49.244;7.726;2022-08-01T15:38:36;98403.25;;;23.35;40.69
58467;BME280;44255;49.244;7.726;2022-08-01T15:41:01;98408.03;;;23.33;40.91
58467;BME280;44255;49.244;7.726;2022-08-01T15:43:26;98402.22;;;23.61;39.95
58467;BME280;44255;49.244;7.726;2022-08-01T15:45:52;98397.41;;;23.21;40.38
58467;BME280;44255;49.244;7.726;2022-08-01T15:48:17;98408.03;;;22.65;41.13
58467;BME280;44255;49.244;7.726;2022-08-01T15:50:42;98393.84;;;23.21;40.94
58467;BME280;44255;49.244;7.726;2022-08-01T15:53:08;98410.75;;;22.65;41.70
58467;BME280;44255;49.244;7.726;2022-08-01T15:55:37;98409.19;;;22.01;42.66
58467;BME280;44255;49.244;7.726;2022-08-01T15:58:02;98400.66;;;22.57;41.89
58467;BME280;44255;49.244;7.726;2022-08-01T16:00:28;98410.94;;;22.72;41.67
58467;BME280;44255;49.244;7.726;2022-08-01T16:02:53;98408.69;;;22.32;42.49
58467;BME280;44255;49.244;7.726;2022-08-01T16:05:20;98406.13;;;22.04;42.90
58467;BME280;44255;49.244;7.726;2022-08-01T16:07:45;98404.72;;;22.18;43.32
58467;BME280;44255;49.244;7.726;2022-08-01T16:10:10;98401.25;;;22.51;42.65
58467;BME280;44255;49.244;7.726;2022-08-01T16:12:36;98405.81;;;22.68;42.51
58467;BME280;44255;49.244;7.726;2022-08-01T16:15:01;98402.78;;;22.45;42.82
58467;BME280;44255;49.244;7.726;2022-08-01T16:17:26;98397.81;;;22.40;42.73
58467;BME280;44255;49.244;7.726;2022-08-01T16:19:52;98386.28;;;22.20;42.91
58467;BME280;44255;49.244;7.726;2022-08-01T16:22:17;98398.63;;;22.59;42.67
58467;BME280;44255;49.244;7.726;2022-08-01T16:24:42;98391.09;;;22.61;42.55
58467;BME280;44255;49.244;7.726;2022-08-01T16:27:07;98387.13;;;22.21;42.80
58467;BME280;44255;49.244;7.726;2022-08-01T16:29:33;98389.66;;;22.49;42.22
58467;BME280;44255;49.244;7.726;2022-08-01T16:31:59;98385.69;;;22.78;42.08
58467;BME280;44255;49.244;7.726;2022-08-01T16:34:25;98387.31;;;22.54;42.39
58467;BME280;44255;49.244;7.726;2022-08-01T16:36:50;98381.69;;;22.56;42.56
58467;BME280;44255;49.244;7.726;2022-08-01T16:39:17;98369.44;;;22.68;42.37
58467;BME280;44255;49.244;7.726;2022-08-01T16:41:43;98369.47;;;22.42;42.51
58467;BME280;44255;49.244;7.726;2022-08-01T16:44:08;98372.72;;;22.45;42.87
58467;BME280;44255;49.244;7.726;2022-08-01T16:46:33;98364.19;;;23.00;42.09
58467;BME280;44255;49.244;7.726;2022-08-01T16:48:58;98374.75;;;22.78;42.57
58467;BME280;44255;49.244;7.726;2022-08-01T16:51:24;98378.41;;;22.52;42.96
58467;BME280;44255;49.244;7.726;2022-08-01T16:53:49;98368.41;;;22.77;42.52
58467;BME280;44255;49.244;7.726;2022-08-01T16:56:14;98366.94;;;23.00;42.23